Weather History for La Veta Pass, CO

Change the Weather History Date:

Friday, October 17, 2014

  Actual Average (KTAD) Record (KTAD)
Temperature  
Mean Temperature 49 °F 52 °F  
Max Temperature 59 °F 68 °F 88 °F (1991)
Min Temperature 39 °F 36 °F 26 °F (1948)
Degree Days  
Heating Degree Days 16 13  
Month to date heating degree days 176  
Since 1 July heating degree days 286  
Cooling Degree Days 0 0  
Month to date cooling degree days 0  
Year to date cooling degree days 716  
Moisture  
Dew Point 23 °F    
Average Humidity 43    
Maximum Humidity 65    
Minimum Humidity 26    
Precipitation  
Precipitation 0.00 in 0.03 in 1.06 in (1960)
Month to date precipitation 0.45  
Year to date precipitation 12.15  
Sea Level Pressure  
Sea Level Pressure 30.34 in    
Wind  
Wind Speed 7 mph (South)    
Max Wind Speed 14 mph    
Max Gust Speed 21 mph    
Visibility 10 miles    
Events      
T = Trace of Precipitation, MM = Missing Value Source: NWS Daily Summary

Daily Weather History Graph

Daily Weather History Graph

Search for Another Location

Airport:

Trip Planner

Search our weather history database for the weather conditions in past years. The results will help you decide how hot, cold, wet, or windy it might be!

Date:

Astronomy

Oct. 17, 2014 Rise Set
Actual Time 7:10 AM MDT 6:20 PM MDT
Civil Twilight 6:44 AM MDT 6:47 PM MDT
Nautical Twilight 6:13 AM MDT 7:17 PM MDT
Astronomical Twilight 5:43 AM MDT 7:47 PM MDT
Moon 1:23 AM MDT (10/17) 3:03 PM MDT (10/17)
Length of Visible Light 12h 02m
Length of Day
11h 09m
Waning Crescent, 32% of the Moon is Illuminated
Oct 17
Waning Crescent
Oct 23
New
Oct 30
First Quarter
Nov 6
Full
Nov 14
Last Quarter

Hourly Weather History & Observations

Time (MDT) Temp. Windchill Dew Point Humidity Pressure Visibility Wind Dir Wind Speed Gust Speed Precip Events Conditions
12:11 AM 42.8 °F 35.8 °F 17.6 °F 36% 30.30 in 10.0 mi South 13.8 mph 20.7 mph N/A   Clear
12:29 AM 42.8 °F 37.5 °F 17.6 °F 36% 30.30 in 10.0 mi SSW 9.2 mph 18.4 mph N/A   Clear
12:50 AM 42.8 °F 37.0 °F 17.6 °F 36% 30.30 in 10.0 mi South 10.4 mph 17.3 mph N/A   Clear
1:12 AM 42.8 °F 37.0 °F 17.6 °F 36% 30.30 in 10.0 mi South 10.4 mph 19.6 mph N/A   Clear
1:26 AM 42.8 °F 36.2 °F 17.6 °F 36% 30.31 in 10.0 mi South 12.7 mph 18.4 mph N/A   Clear
1:50 AM 42.8 °F 39.3 °F 17.6 °F 36% 30.31 in 10.0 mi South 5.8 mph - N/A   Clear
2:12 AM 41.0 °F 36.4 °F 17.6 °F 39% 30.31 in 10.0 mi South 6.9 mph - N/A   Clear
2:32 AM 41.0 °F 35.8 °F 17.6 °F 39% 30.30 in 10.0 mi South 8.1 mph - N/A   Clear
2:52 AM 41.0 °F 37.1 °F 17.6 °F 39% 30.31 in 10.0 mi SW 5.8 mph - N/A   Clear
3:12 AM 41.0 °F 37.1 °F 17.6 °F 39% 30.31 in 10.0 mi SSW 5.8 mph - N/A   Clear
3:32 AM 41.0 °F 34.7 °F 17.6 °F 39% 30.31 in 10.0 mi South 10.4 mph 17.3 mph N/A   Clear
3:49 AM 42.8 °F 37.0 °F 17.6 °F 36% 30.31 in 10.0 mi South 10.4 mph 17.3 mph N/A   Clear
4:12 AM 41.0 °F 35.2 °F 17.6 °F 39% 30.31 in 10.0 mi SSW 9.2 mph 17.3 mph N/A   Clear
4:32 AM 41.0 °F 36.4 °F 17.6 °F 39% 30.31 in 10.0 mi SSW 6.9 mph - N/A   Clear
4:49 AM 39.2 °F 33.6 °F 17.6 °F 42% 30.31 in 10.0 mi South 8.1 mph - N/A   Clear
5:06 AM 39.2 °F 33.6 °F 17.6 °F 42% 30.31 in 10.0 mi SSW 8.1 mph - N/A   Clear
5:32 AM 39.2 °F 35.0 °F 17.6 °F 42% 30.32 in 10.0 mi SSW 5.8 mph - N/A   Clear
5:52 AM 39.2 °F 35.0 °F 17.6 °F 42% 30.33 in 10.0 mi SSW 5.8 mph - N/A   Clear
6:07 AM 39.2 °F 33.6 °F 17.6 °F 42% 30.33 in 10.0 mi South 8.1 mph - N/A   Clear
6:32 AM 39.2 °F 33.6 °F 17.6 °F 42% 30.33 in 10.0 mi South 8.1 mph - N/A   Clear
6:49 AM 41.0 °F 35.2 °F 17.6 °F 39% 30.34 in 10.0 mi SSW 9.2 mph 16.1 mph N/A   Clear
7:09 AM 39.2 °F 34.2 °F 15.8 °F 39% 30.34 in 10.0 mi South 6.9 mph - N/A   Clear
7:23 AM 39.2 °F 35.9 °F 17.6 °F 42% 30.34 in 10.0 mi SSW 4.6 mph - N/A   Clear
7:52 AM 39.2 °F 35.9 °F 17.6 °F 42% 30.34 in 10.0 mi South 4.6 mph - N/A   Clear
8:07 AM 39.2 °F 37.0 °F 17.6 °F 42% 30.35 in 10.0 mi South 3.5 mph - N/A   Clear
8:30 AM 41.0 °F 39.0 °F 17.6 °F 39% 30.36 in 10.0 mi SSW 3.5 mph - N/A   Clear
8:52 AM 41.0 °F 39.0 °F 19.4 °F 42% 30.37 in 10.0 mi SW 3.5 mph - N/A   Clear
9:12 AM 42.8 °F 40.1 °F 19.4 °F 39% 30.37 in 10.0 mi SSW 4.6 mph - N/A   Clear
9:27 AM 44.6 °F 43.1 °F 19.4 °F 37% 30.37 in 10.0 mi SSW 3.5 mph - N/A   Clear
9:52 AM 46.4 °F 43.5 °F 19.4 °F 34% 30.37 in 10.0 mi SSW 5.8 mph - N/A   Clear
10:12 AM 48.2 °F - 21.2 °F 34% 30.37 in 10.0 mi SW 3.5 mph - N/A   Clear
10:32 AM 50.0 °F - 21.2 °F 32% 30.38 in 10.0 mi SSW 4.6 mph - N/A   Clear
10:46 AM 51.8 °F - 23.0 °F 33% 30.37 in 10.0 mi SSW 3.5 mph - N/A   Clear
11:11 AM 53.6 °F - 24.8 °F 33% 30.37 in 10.0 mi SW 3.5 mph - N/A   Clear
11:32 AM 53.6 °F - 23.0 °F 30% 30.37 in 10.0 mi SW 5.8 mph - N/A   Clear
11:51 AM 55.4 °F - 21.2 °F 26% 30.37 in 10.0 mi WSW 4.6 mph - N/A   Clear
12:07 PM 55.4 °F - 21.2 °F 26% 30.36 in 10.0 mi SW 4.6 mph - N/A   Clear
12:25 PM 57.2 °F - 23.0 °F 27% 30.36 in 10.0 mi SSW 4.6 mph - N/A   Clear
12:48 PM 59.0 °F - 26.6 °F 29% 30.36 in 10.0 mi South 4.6 mph - N/A   Clear
1:08 PM 53.6 °F - 28.4 °F 38% 30.35 in 10.0 mi South 3.5 mph - N/A   Clear
1:27 PM 53.6 °F - 30.2 °F 41% 30.34 in 10.0 mi Calm Calm - N/A   Clear
1:50 PM 51.8 °F - 32.0 °F 47% 30.34 in 10.0 mi NE 3.5 mph - N/A   Clear
2:12 PM 53.6 °F - 32.0 °F 44% 30.34 in 10.0 mi Calm Calm - N/A   Clear
2:31 PM 53.6 °F - 32.0 °F 44% 30.33 in 10.0 mi NE 3.5 mph - N/A   Clear
2:51 PM 50.0 °F - 32.0 °F 50% 30.33 in 10.0 mi NNE 3.5 mph - N/A   Clear
3:08 PM 50.0 °F - 32.0 °F 50% 30.33 in 10.0 mi NNE 5.8 mph - N/A   Clear
3:29 PM 48.2 °F - 32.0 °F 54% 30.34 in 10.0 mi NNE 3.5 mph - N/A   Clear
3:49 PM 50.0 °F - 32.0 °F 50% 30.34 in 10.0 mi NNE 4.6 mph - N/A   Clear
4:12 PM 46.4 °F 44.3 °F 32.0 °F 57% 30.34 in 10.0 mi NE 4.6 mph - N/A   Clear
4:26 PM 46.4 °F 44.3 °F 32.0 °F 57% 30.34 in 10.0 mi NNE 4.6 mph - N/A   Clear
4:51 PM 44.6 °F 41.4 °F 32.0 °F 61% 30.34 in 10.0 mi NNE 5.8 mph - N/A   Clear
5:09 PM 44.6 °F 42.2 °F 32.0 °F 61% 30.34 in 10.0 mi NE 4.6 mph - N/A   Clear
5:31 PM 44.6 °F 41.4 °F 32.0 °F 61% 30.34 in 10.0 mi NE 5.8 mph - N/A   Clear
5:50 PM 42.8 °F 39.3 °F 30.2 °F 61% 30.34 in 10.0 mi NNE 5.8 mph - N/A   Clear
6:12 PM 42.8 °F 39.3 °F 30.2 °F 61% 30.35 in 10.0 mi NE 5.8 mph - N/A   Clear
6:31 PM 42.8 °F 41.1 °F 30.2 °F 61% 30.35 in 10.0 mi ENE 3.5 mph - N/A   Clear
6:52 PM 41.0 °F 39.0 °F 30.2 °F 65% 30.36 in 10.0 mi NNE 3.5 mph - N/A   Clear
7:12 PM 42.8 °F - 30.2 °F 61% 30.36 in 10.0 mi Calm Calm - N/A   Clear
7:26 PM 42.8 °F - 30.2 °F 61% 30.36 in 10.0 mi Calm Calm - N/A   Clear
7:52 PM 41.0 °F 37.1 °F 28.4 °F 61% 30.36 in 10.0 mi South 5.8 mph - N/A   Clear
8:11 PM 42.8 °F 38.6 °F 24.8 °F 49% 30.37 in 10.0 mi South 6.9 mph - N/A   Clear
8:31 PM 42.8 °F 38.0 °F 23.0 °F 46% 30.37 in 10.0 mi South 8.1 mph - N/A   Clear
8:41 PM 42.8 °F 38.6 °F 23.0 °F 46% 30.37 in 10.0 mi South 6.9 mph - N/A   Clear
9:04 PM 44.6 °F 39.7 °F 23.0 °F 43% 30.37 in 10.0 mi South 9.2 mph - N/A   Clear
9:24 PM 44.6 °F 40.2 °F 23.0 °F 43% 30.37 in 10.0 mi South 8.1 mph - N/A   Clear
9:52 PM 44.6 °F 40.2 °F 23.0 °F 43% 30.37 in 10.0 mi South 8.1 mph 16.1 mph N/A   Scattered Clouds
10:05 PM 44.6 °F 40.2 °F 23.0 °F 43% 30.37 in 10.0 mi South 8.1 mph - N/A   Mostly Cloudy
10:31 PM 44.6 °F 39.7 °F 23.0 °F 43% 30.37 in 10.0 mi South 9.2 mph - N/A   Overcast
10:49 PM 44.6 °F 40.2 °F 23.0 °F 43% 30.37 in 10.0 mi South 8.1 mph - N/A   Mostly Cloudy
11:11 PM 44.6 °F 40.7 °F 23.0 °F 43% 30.38 in 10.0 mi SSW 6.9 mph - N/A   Overcast
11:25 PM 44.6 °F 40.7 °F 23.0 °F 43% 30.37 in 10.0 mi SSW 6.9 mph - N/A   Overcast
11:52 PM 44.6 °F 38.8 °F 23.0 °F 43% 30.37 in 10.0 mi South 11.5 mph 18.4 mph N/A   Overcast